sensor_id;sensor_type;location;lat;lon;timestamp;P1;durP1;ratioP1;P2;durP2;ratioP2
69226;SDS011;56334;52.398;7.552;2023-02-22T00:00:28;56.65;;;16.42;;
69226;SDS011;56334;52.398;7.552;2023-02-22T00:05:43;52.90;;;13.93;;
69226;SDS011;56334;52.398;7.552;2023-02-22T00:08:11;54.83;;;15.30;;
69226;SDS011;56334;52.398;7.552;2023-02-22T00:10:37;55.80;;;14.77;;
69226;SDS011;56334;52.398;7.552;2023-02-22T00:13:04;57.58;;;17.02;;
69226;SDS011;56334;52.398;7.552;2023-02-22T00:15:31;52.30;;;14.88;;
69226;SDS011;56334;52.398;7.552;2023-02-22T00:17:57;52.15;;;14.65;;
69226;SDS011;56334;52.398;7.552;2023-02-22T00:22:51;42.55;;;12.45;;
69226;SDS011;56334;52.398;7.552;2023-02-22T00:25:19;60.15;;;15.45;;
69226;SDS011;56334;52.398;7.552;2023-02-22T00:27:46;45.72;;;14.07;;
69226;SDS011;56334;52.398;7.552;2023-02-22T00:30:14;58.22;;;15.38;;
69226;SDS011;56334;52.398;7.552;2023-02-22T00:32:43;52.80;;;14.23;;
69226;SDS011;56334;52.398;7.552;2023-02-22T00:35:09;54.58;;;14.40;;
69226;SDS011;56334;52.398;7.552;2023-02-22T00:37:35;59.78;;;15.68;;
69226;SDS011;56334;52.398;7.552;2023-02-22T00:40:06;59.58;;;15.77;;
69226;SDS011;56334;52.398;7.552;2023-02-22T00:42:32;56.10;;;15.55;;
69226;SDS011;56334;52.398;7.552;2023-02-22T00:44:58;51.67;;;14.80;;
69226;SDS011;56334;52.398;7.552;2023-02-22T00:47:24;61.03;;;15.38;;
69226;SDS011;56334;52.398;7.552;2023-02-22T00:49:51;55.22;;;14.98;;
69226;SDS011;56334;52.398;7.552;2023-02-22T00:52:17;58.88;;;17.50;;
69226;SDS011;56334;52.398;7.552;2023-02-22T00:54:43;51.13;;;13.93;;
69226;SDS011;56334;52.398;7.552;2023-02-22T00:57:09;58.33;;;16.75;;
69226;SDS011;56334;52.398;7.552;2023-02-22T00:59:35;61.10;;;16.27;;
69226;SDS011;56334;52.398;7.552;2023-02-22T01:02:02;56.15;;;15.65;;
69226;SDS011;56334;52.398;7.552;2023-02-22T01:04:28;56.03;;;15.60;;
69226;SDS011;56334;52.398;7.552;2023-02-22T01:06:54;58.13;;;17.73;;
69226;SDS011;56334;52.398;7.552;2023-02-22T01:09:20;59.97;;;16.95;;
69226;SDS011;56334;52.398;7.552;2023-02-22T01:11:49;58.75;;;15.27;;
69226;SDS011;56334;52.398;7.552;2023-02-22T01:14:19;61.45;;;17.15;;
69226;SDS011;56334;52.398;7.552;2023-02-22T01:16:45;59.00;;;16.98;;
69226;SDS011;56334;52.398;7.552;2023-02-22T01:19:11;65.28;;;17.52;;
69226;SDS011;56334;52.398;7.552;2023-02-22T01:21:38;61.20;;;17.35;;
69226;SDS011;56334;52.398;7.552;2023-02-22T01:24:05;57.78;;;15.95;;
69226;SDS011;56334;52.398;7.552;2023-02-22T01:26:31;63.40;;;17.50;;
69226;SDS011;56334;52.398;7.552;2023-02-22T01:28:57;68.15;;;19.55;;
69226;SDS011;56334;52.398;7.552;2023-02-22T01:31:23;67.35;;;17.48;;
69226;SDS011;56334;52.398;7.552;2023-02-22T01:33:49;65.10;;;17.13;;
69226;SDS011;56334;52.398;7.552;2023-02-22T01:36:15;60.38;;;17.67;;
69226;SDS011;56334;52.398;7.552;2023-02-22T01:38:43;61.38;;;16.98;;
69226;SDS011;56334;52.398;7.552;2023-02-22T01:41:09;61.40;;;16.88;;
69226;SDS011;56334;52.398;7.552;2023-02-22T01:43:36;66.40;;;18.25;;
69226;SDS011;56334;52.398;7.552;2023-02-22T01:46:05;69.15;;;19.25;;
69226;SDS011;56334;52.398;7.552;2023-02-22T01:48:42;65.85;;;17.10;;
69226;SDS011;56334;52.398;7.552;2023-02-22T01:51:12;61.25;;;16.63;;
69226;SDS011;56334;52.398;7.552;2023-02-22T01:54:22;59.72;;;17.02;;
69226;SDS011;56334;52.398;7.552;2023-02-22T01:56:29;64.13;;;17.95;;
69226;SDS011;56334;52.398;7.552;2023-02-22T01:59:01;69.60;;;18.25;;
69226;SDS011;56334;52.398;7.552;2023-02-22T02:01:30;62.97;;;18.25;;
69226;SDS011;56334;52.398;7.552;2023-02-22T02:03:56;62.35;;;16.83;;
69226;SDS011;56334;52.398;7.552;2023-02-22T02:06:24;58.97;;;15.45;;
69226;SDS011;56334;52.398;7.552;2023-02-22T02:08:59;58.58;;;17.42;;
69226;SDS011;56334;52.398;7.552;2023-02-22T02:11:27;58.58;;;16.80;;
69226;SDS011;56334;52.398;7.552;2023-02-22T02:13:54;54.78;;;15.15;;
69226;SDS011;56334;52.398;7.552;2023-02-22T02:16:22;59.45;;;16.88;;
69226;SDS011;56334;52.398;7.552;2023-02-22T02:18:49;60.53;;;16.77;;
69226;SDS011;56334;52.398;7.552;2023-02-22T02:29:18;57.28;;;15.82;;
69226;SDS011;56334;52.398;7.552;2023-02-22T02:34:22;49.00;;;14.07;;
69226;SDS011;56334;52.398;7.552;2023-02-22T02:37:10;53.30;;;14.73;;
69226;SDS011;56334;52.398;7.552;2023-02-22T02:39:42;64.47;;;16.20;;
69226;SDS011;56334;52.398;7.552;2023-02-22T02:42:11;54.55;;;15.50;;
69226;SDS011;56334;52.398;7.552;2023-02-22T02:47:08;64.93;;;15.90;;
69226;SDS011;56334;52.398;7.552;2023-02-22T02:49:36;65.72;;;16.77;;
69226;SDS011;56334;52.398;7.552;2023-02-22T02:52:04;58.70;;;16.67;;
69226;SDS011;56334;52.398;7.552;2023-02-22T02:54:31;52.05;;;14.75;;
69226;SDS011;56334;52.398;7.552;2023-02-22T02:56:58;57.72;;;15.27;;
69226;SDS011;56334;52.398;7.552;2023-02-22T03:02:00;56.28;;;14.77;;
69226;SDS011;56334;52.398;7.552;2023-02-22T03:04:33;57.80;;;15.48;;
69226;SDS011;56334;52.398;7.552;2023-02-22T03:12:12;60.15;;;16.30;;
69226;SDS011;56334;52.398;7.552;2023-02-22T03:15:05;55.83;;;14.63;;
69226;SDS011;56334;52.398;7.552;2023-02-22T03:17:45;53.28;;;15.52;;
69226;SDS011;56334;52.398;7.552;2023-02-22T03:20:26;56.13;;;15.18;;
69226;SDS011;56334;52.398;7.552;2023-02-22T03:25:42;52.03;;;14.95;;
69226;SDS011;56334;52.398;7.552;2023-02-22T03:28:11;66.40;;;17.52;;
69226;SDS011;56334;52.398;7.552;2023-02-22T03:30:41;50.15;;;15.02;;
69226;SDS011;56334;52.398;7.552;2023-02-22T03:33:10;48.97;;;13.38;;
69226;SDS011;56334;52.398;7.552;2023-02-22T03:35:44;39.15;;;12.07;;
69226;SDS011;56334;52.398;7.552;2023-02-22T03:38:13;43.95;;;14.07;;
69226;SDS011;56334;52.398;7.552;2023-02-22T03:40:42;46.38;;;13.95;;
69226;SDS011;56334;52.398;7.552;2023-02-22T03:43:12;53.38;;;14.93;;
69226;SDS011;56334;52.398;7.552;2023-02-22T03:45:40;65.72;;;15.55;;
69226;SDS011;56334;52.398;7.552;2023-02-22T03:48:13;61.63;;;16.17;;
69226;SDS011;56334;52.398;7.552;2023-02-22T03:50:42;46.10;;;12.98;;
69226;SDS011;56334;52.398;7.552;2023-02-22T03:53:08;49.13;;;13.02;;
69226;SDS011;56334;52.398;7.552;2023-02-22T03:55:34;63.28;;;16.83;;
69226;SDS011;56334;52.398;7.552;2023-02-22T03:58:01;45.40;;;13.38;;
69226;SDS011;56334;52.398;7.552;2023-02-22T04:00:31;52.33;;;14.13;;
69226;SDS011;56334;52.398;7.552;2023-02-22T04:02:58;36.47;;;11.35;;
69226;SDS011;56334;52.398;7.552;2023-02-22T04:05:24;39.28;;;11.32;;
69226;SDS011;56334;52.398;7.552;2023-02-22T04:07:54;49.22;;;13.48;;
69226;SDS011;56334;52.398;7.552;2023-02-22T04:10:21;54.65;;;13.85;;
69226;SDS011;56334;52.398;7.552;2023-02-22T04:12:47;60.08;;;14.77;;
69226;SDS011;56334;52.398;7.552;2023-02-22T04:15:15;54.28;;;13.70;;
69226;SDS011;56334;52.398;7.552;2023-02-22T04:17:42;65.55;;;15.35;;
69226;SDS011;56334;52.398;7.552;2023-02-22T04:20:09;37.53;;;10.15;;
69226;SDS011;56334;52.398;7.552;2023-02-22T04:22:37;96.45;;;14.80;;
69226;SDS011;56334;52.398;7.552;2023-02-22T04:25:03;147.40;;;14.20;;
69226;SDS011;56334;52.398;7.552;2023-02-22T04:27:29;34.35;;;11.02;;
69226;SDS011;56334;52.398;7.552;2023-02-22T04:29:56;58.55;;;12.57;;
69226;SDS011;56334;52.398;7.552;2023-02-22T04:32:24;42.13;;;11.43;;
69226;SDS011;56334;52.398;7.552;2023-02-22T04:34:51;42.22;;;12.35;;
69226;SDS011;56334;52.398;7.552;2023-02-22T04:37:17;48.88;;;13.13;;
69226;SDS011;56334;52.398;7.552;2023-02-22T04:39:44;56.47;;;14.93;;
69226;SDS011;56334;52.398;7.552;2023-02-22T04:42:10;52.42;;;14.57;;
69226;SDS011;56334;52.398;7.552;2023-02-22T04:44:36;52.30;;;13.15;;
69226;SDS011;56334;52.398;7.552;2023-02-22T04:47:02;52.00;;;14.57;;
69226;SDS011;56334;52.398;7.552;2023-02-22T04:49:28;59.28;;;15.30;;
69226;SDS011;56334;52.398;7.552;2023-02-22T04:51:54;53.67;;;14.35;;
69226;SDS011;56334;52.398;7.552;2023-02-22T04:54:20;55.65;;;15.23;;
69226;SDS011;56334;52.398;7.552;2023-02-22T04:56:47;63.83;;;14.38;;
69226;SDS011;56334;52.398;7.552;2023-02-22T04:59:13;62.55;;;15.27;;
69226;SDS011;56334;52.398;7.552;2023-02-22T05:01:40;60.72;;;14.80;;
69226;SDS011;56334;52.398;7.552;2023-02-22T05:04:06;64.43;;;16.85;;
69226;SDS011;56334;52.398;7.552;2023-02-22T05:06:32;64.28;;;15.77;;
69226;SDS011;56334;52.398;7.552;2023-02-22T05:08:58;68.35;;;17.45;;
69226;SDS011;56334;52.398;7.552;2023-02-22T05:11:25;67.35;;;17.17;;
69226;SDS011;56334;52.398;7.552;2023-02-22T05:13:51;58.22;;;15.38;;
69226;SDS011;56334;52.398;7.552;2023-02-22T05:16:18;61.08;;;16.58;;
69226;SDS011;56334;52.398;7.552;2023-02-22T05:18:44;73.50;;;18.35;;
69226;SDS011;56334;52.398;7.552;2023-02-22T05:21:10;69.88;;;17.55;;
69226;SDS011;56334;52.398;7.552;2023-02-22T05:23:38;71.18;;;17.60;;
69226;SDS011;56334;52.398;7.552;2023-02-22T05:26:07;69.47;;;16.90;;
69226;SDS011;56334;52.398;7.552;2023-02-22T05:28:34;71.75;;;18.73;;
69226;SDS011;56334;52.398;7.552;2023-02-22T05:31:00;71.10;;;18.63;;
69226;SDS011;56334;52.398;7.552;2023-02-22T05:33:26;69.38;;;16.92;;
69226;SDS011;56334;52.398;7.552;2023-02-22T05:35:52;70.55;;;17.50;;
69226;SDS011;56334;52.398;7.552;2023-02-22T05:38:20;80.95;;;18.85;;
69226;SDS011;56334;52.398;7.552;2023-02-22T05:40:48;83.55;;;17.98;;
69226;SDS011;56334;52.398;7.552;2023-02-22T05:43:14;72.35;;;17.10;;
69226;SDS011;56334;52.398;7.552;2023-02-22T05:45:41;83.65;;;18.45;;
69226;SDS011;56334;52.398;7.552;2023-02-22T05:48:07;89.63;;;18.63;;
69226;SDS011;56334;52.398;7.552;2023-02-22T05:50:37;81.00;;;19.02;;
69226;SDS011;56334;52.398;7.552;2023-02-22T05:53:03;81.10;;;17.33;;
69226;SDS011;56334;52.398;7.552;2023-02-22T05:55:29;78.30;;;17.80;;
69226;SDS011;56334;52.398;7.552;2023-02-22T05:57:56;71.07;;;17.88;;
69226;SDS011;56334;52.398;7.552;2023-02-22T06:00:23;77.60;;;17.65;;
69226;SDS011;56334;52.398;7.552;2023-02-22T06:03:00;70.35;;;17.10;;
69226;SDS011;56334;52.398;7.552;2023-02-22T06:05:27;65.07;;;15.65;;
69226;SDS011;56334;52.398;7.552;2023-02-22T06:07:53;65.97;;;16.98;;
69226;SDS011;56334;52.398;7.552;2023-02-22T06:10:19;61.65;;;16.50;;
69226;SDS011;56334;52.398;7.552;2023-02-22T06:12:46;66.75;;;17.17;;
69226;SDS011;56334;52.398;7.552;2023-02-22T06:15:13;73.57;;;16.42;;
69226;SDS011;56334;52.398;7.552;2023-02-22T06:20:06;77.65;;;18.42;;
69226;SDS011;56334;52.398;7.552;2023-02-22T06:22:32;68.03;;;17.58;;
69226;SDS011;56334;52.398;7.552;2023-02-22T06:25:00;77.63;;;18.58;;
69226;SDS011;56334;52.398;7.552;2023-02-22T06:27:29;74.68;;;17.73;;
69226;SDS011;56334;52.398;7.552;2023-02-22T06:29:55;71.28;;;17.42;;
69226;SDS011;56334;52.398;7.552;2023-02-22T06:32:21;77.82;;;18.75;;
69226;SDS011;56334;52.398;7.552;2023-02-22T06:34:49;82.97;;;19.98;;
69226;SDS011;56334;52.398;7.552;2023-02-22T06:37:15;74.28;;;19.60;;
69226;SDS011;56334;52.398;7.552;2023-02-22T06:39:41;84.70;;;19.48;;
69226;SDS011;56334;52.398;7.552;2023-02-22T06:42:07;72.72;;;19.17;;
69226;SDS011;56334;52.398;7.552;2023-02-22T06:44:33;97.03;;;19.13;;
69226;SDS011;56334;52.398;7.552;2023-02-22T06:46:59;86.85;;;19.75;;
69226;SDS011;56334;52.398;7.552;2023-02-22T06:49:26;82.28;;;17.98;;
69226;SDS011;56334;52.398;7.552;2023-02-22T06:51:52;84.07;;;17.65;;
69226;SDS011;56334;52.398;7.552;2023-02-22T06:54:19;71.90;;;17.02;;
69226;SDS011;56334;52.398;7.552;2023-02-22T06:56:45;100.10;;;19.85;;
69226;SDS011;56334;52.398;7.552;2023-02-22T06:59:11;96.20;;;19.70;;
69226;SDS011;56334;52.398;7.552;2023-02-22T07:01:39;70.32;;;17.40;;
69226;SDS011;56334;52.398;7.552;2023-02-22T07:04:06;98.38;;;19.60;;
69226;SDS011;56334;52.398;7.552;2023-02-22T07:06:32;84.75;;;17.25;;
69226;SDS011;56334;52.398;7.552;2023-02-22T07:08:58;70.72;;;16.77;;
69226;SDS011;56334;52.398;7.552;2023-02-22T07:11:25;67.13;;;16.65;;
69226;SDS011;56334;52.398;7.552;2023-02-22T07:13:51;84.45;;;17.90;;
69226;SDS011;56334;52.398;7.552;2023-02-22T07:16:17;69.45;;;19.20;;
69226;SDS011;56334;52.398;7.552;2023-02-22T07:18:43;69.20;;;17.10;;
69226;SDS011;56334;52.398;7.552;2023-02-22T07:21:16;72.75;;;17.05;;
69226;SDS011;56334;52.398;7.552;2023-02-22T07:23:48;61.70;;;15.63;;
69226;SDS011;56334;52.398;7.552;2023-02-22T07:26:15;57.72;;;15.32;;
69226;SDS011;56334;52.398;7.552;2023-02-22T07:28:41;56.58;;;14.43;;
69226;SDS011;56334;52.398;7.552;2023-02-22T07:31:08;58.97;;;13.95;;
69226;SDS011;56334;52.398;7.552;2023-02-22T07:33:35;64.43;;;15.30;;
69226;SDS011;56334;52.398;7.552;2023-02-22T07:36:01;61.60;;;15.93;;
69226;SDS011;56334;52.398;7.552;2023-02-22T07:38:27;52.85;;;15.48;;
69226;SDS011;56334;52.398;7.552;2023-02-22T07:40:53;66.30;;;16.48;;
69226;SDS011;56334;52.398;7.552;2023-02-22T07:43:28;48.38;;;13.38;;
69226;SDS011;56334;52.398;7.552;2023-02-22T07:45:56;61.50;;;15.15;;
69226;SDS011;56334;52.398;7.552;2023-02-22T07:48:23;54.55;;;15.43;;
69226;SDS011;56334;52.398;7.552;2023-02-22T07:50:49;49.80;;;13.32;;
69226;SDS011;56334;52.398;7.552;2023-02-22T07:53:20;49.78;;;12.98;;
69226;SDS011;56334;52.398;7.552;2023-02-22T07:55:48;52.28;;;13.98;;
69226;SDS011;56334;52.398;7.552;2023-02-22T07:58:15;61.17;;;14.82;;
69226;SDS011;56334;52.398;7.552;2023-02-22T08:00:41;48.50;;;13.70;;
69226;SDS011;56334;52.398;7.552;2023-02-22T08:03:09;52.95;;;14.55;;
69226;SDS011;56334;52.398;7.552;2023-02-22T08:08:01;52.85;;;14.63;;
69226;SDS011;56334;52.398;7.552;2023-02-22T08:10:28;49.28;;;14.73;;
69226;SDS011;56334;52.398;7.552;2023-02-22T08:12:55;48.83;;;13.90;;
69226;SDS011;56334;52.398;7.552;2023-02-22T08:15:23;53.20;;;14.35;;
69226;SDS011;56334;52.398;7.552;2023-02-22T08:17:49;55.65;;;15.98;;
69226;SDS011;56334;52.398;7.552;2023-02-22T08:20:17;63.65;;;16.50;;
69226;SDS011;56334;52.398;7.552;2023-02-22T08:22:44;47.55;;;14.07;;
69226;SDS011;56334;52.398;7.552;2023-02-22T08:25:10;56.65;;;16.05;;
69226;SDS011;56334;52.398;7.552;2023-02-22T08:27:37;70.32;;;17.15;;
69226;SDS011;56334;52.398;7.552;2023-02-22T08:30:04;48.30;;;15.48;;
69226;SDS011;56334;52.398;7.552;2023-02-22T08:32:31;45.15;;;13.60;;
69226;SDS011;56334;52.398;7.552;2023-02-22T08:34:59;48.03;;;14.75;;
69226;SDS011;56334;52.398;7.552;2023-02-22T08:37:25;47.83;;;14.07;;
69226;SDS011;56334;52.398;7.552;2023-02-22T08:39:51;56.47;;;15.52;;
69226;SDS011;56334;52.398;7.552;2023-02-22T08:42:18;54.78;;;15.80;;
69226;SDS011;56334;52.398;7.552;2023-02-22T08:44:45;53.88;;;15.40;;
69226;SDS011;56334;52.398;7.552;2023-02-22T08:47:11;51.70;;;15.07;;
69226;SDS011;56334;52.398;7.552;2023-02-22T08:49:37;56.35;;;14.57;;
69226;SDS011;56334;52.398;7.552;2023-02-22T08:52:03;54.92;;;15.82;;
69226;SDS011;56334;52.398;7.552;2023-02-22T08:54:30;51.88;;;15.32;;
69226;SDS011;56334;52.398;7.552;2023-02-22T08:56:59;45.75;;;14.60;;
69226;SDS011;56334;52.398;7.552;2023-02-22T08:59:25;50.38;;;14.77;;
69226;SDS011;56334;52.398;7.552;2023-02-22T09:01:51;49.00;;;15.55;;
69226;SDS011;56334;52.398;7.552;2023-02-22T09:04:19;56.25;;;17.40;;
69226;SDS011;56334;52.398;7.552;2023-02-22T09:06:45;59.50;;;17.58;;
69226;SDS011;56334;52.398;7.552;2023-02-22T09:09:16;58.88;;;17.70;;
69226;SDS011;56334;52.398;7.552;2023-02-22T09:11:43;53.00;;;16.67;;
69226;SDS011;56334;52.398;7.552;2023-02-22T09:14:09;54.30;;;18.10;;
69226;SDS011;56334;52.398;7.552;2023-02-22T09:16:35;57.67;;;18.23;;
69226;SDS011;56334;52.398;7.552;2023-02-22T09:19:02;48.28;;;17.27;;
69226;SDS011;56334;52.398;7.552;2023-02-22T09:21:28;50.08;;;16.30;;
69226;SDS011;56334;52.398;7.552;2023-02-22T09:23:57;43.67;;;15.65;;
69226;SDS011;56334;52.398;7.552;2023-02-22T09:26:25;40.58;;;15.13;;
69226;SDS011;56334;52.398;7.552;2023-02-22T09:28:51;37.58;;;13.75;;
69226;SDS011;56334;52.398;7.552;2023-02-22T09:31:17;37.88;;;13.68;;
69226;SDS011;56334;52.398;7.552;2023-02-22T09:33:44;43.88;;;15.13;;
69226;SDS011;56334;52.398;7.552;2023-02-22T09:36:10;41.67;;;13.90;;
69226;SDS011;56334;52.398;7.552;2023-02-22T09:38:36;36.92;;;13.02;;
69226;SDS011;56334;52.398;7.552;2023-02-22T09:48:39;37.67;;;14.85;;
69226;SDS011;56334;52.398;7.552;2023-02-22T09:51:14;37.92;;;15.13;;
69226;SDS011;56334;52.398;7.552;2023-02-22T09:53:43;42.17;;;15.98;;
69226;SDS011;56334;52.398;7.552;2023-02-22T09:56:11;42.20;;;15.48;;
69226;SDS011;56334;52.398;7.552;2023-02-22T09:58:42;40.50;;;15.38;;
69226;SDS011;56334;52.398;7.552;2023-02-22T10:06:18;35.78;;;13.95;;
69226;SDS011;56334;52.398;7.552;2023-02-22T10:08:45;36.00;;;12.55;;
69226;SDS011;56334;52.398;7.552;2023-02-22T10:16:26;32.65;;;12.30;;
69226;SDS011;56334;52.398;7.552;2023-02-22T10:24:04;36.83;;;12.98;;
69226;SDS011;56334;52.398;7.552;2023-02-22T10:26:34;34.90;;;13.23;;
69226;SDS011;56334;52.398;7.552;2023-02-22T10:31:32;34.97;;;12.55;;
69226;SDS011;56334;52.398;7.552;2023-02-22T10:34:00;34.67;;;13.43;;
69226;SDS011;56334;52.398;7.552;2023-02-22T10:36:26;30.02;;;11.63;;
69226;SDS011;56334;52.398;7.552;2023-02-22T10:39:03;31.95;;;12.15;;
69226;SDS011;56334;52.398;7.552;2023-02-22T10:41:36;35.85;;;12.90;;
69226;SDS011;56334;52.398;7.552;2023-02-22T10:44:03;32.00;;;13.00;;
69226;SDS011;56334;52.398;7.552;2023-02-22T10:46:30;34.28;;;13.32;;
69226;SDS011;56334;52.398;7.552;2023-02-22T10:48:59;36.85;;;14.25;;
69226;SDS011;56334;52.398;7.552;2023-02-22T10:51:27;32.03;;;12.82;;
69226;SDS011;56334;52.398;7.552;2023-02-22T11:07:09;31.48;;;12.32;;
69226;SDS011;56334;52.398;7.552;2023-02-22T11:09:45;33.70;;;13.60;;
69226;SDS011;56334;52.398;7.552;2023-02-22T11:12:19;35.88;;;13.98;;
69226;SDS011;56334;52.398;7.552;2023-02-22T11:17:13;31.75;;;12.18;;
69226;SDS011;56334;52.398;7.552;2023-02-22T11:19:47;29.42;;;12.43;;
69226;SDS011;56334;52.398;7.552;2023-02-22T11:22:21;31.40;;;12.43;;
69226;SDS011;56334;52.398;7.552;2023-02-22T11:24:52;33.08;;;13.10;;
69226;SDS011;56334;52.398;7.552;2023-02-22T11:27:32;28.60;;;11.55;;
69226;SDS011;56334;52.398;7.552;2023-02-22T11:32:43;25.73;;;10.80;;
69226;SDS011;56334;52.398;7.552;2023-02-22T11:35:47;28.63;;;11.75;;
69226;SDS011;56334;52.398;7.552;2023-02-22T11:38:24;30.33;;;12.45;;
69226;SDS011;56334;52.398;7.552;2023-02-22T11:43:35;28.73;;;12.57;;
69226;SDS011;56334;52.398;7.552;2023-02-22T11:46:05;25.08;;;11.43;;
69226;SDS011;56334;52.398;7.552;2023-02-22T11:48:36;27.60;;;12.00;;
69226;SDS011;56334;52.398;7.552;2023-02-22T11:53:41;26.55;;;12.30;;
69226;SDS011;56334;52.398;7.552;2023-02-22T11:59:34;23.95;;;9.93;;
69226;SDS011;56334;52.398;7.552;2023-02-22T12:02:07;25.60;;;10.65;;
69226;SDS011;56334;52.398;7.552;2023-02-22T12:05:29;27.20;;;10.75;;
69226;SDS011;56334;52.398;7.552;2023-02-22T12:20:46;23.13;;;9.52;;
69226;SDS011;56334;52.398;7.552;2023-02-22T12:23:46;25.67;;;10.73;;
69226;SDS011;56334;52.398;7.552;2023-02-22T12:29:29;24.27;;;9.82;;
69226;SDS011;56334;52.398;7.552;2023-02-22T14:05:34;23.33;;;9.70;;
69226;SDS011;56334;52.398;7.552;2023-02-22T14:08:00;23.08;;;10.10;;
69226;SDS011;56334;52.398;7.552;2023-02-22T14:10:34;22.65;;;9.68;;
69226;SDS011;56334;52.398;7.552;2023-02-22T14:13:04;23.58;;;9.60;;
69226;SDS011;56334;52.398;7.552;2023-02-22T14:15:31;22.02;;;9.45;;
69226;SDS011;56334;52.398;7.552;2023-02-22T14:20:36;21.90;;;9.57;;
69226;SDS011;56334;52.398;7.552;2023-02-22T14:25:51;24.58;;;9.95;;
69226;SDS011;56334;52.398;7.552;2023-02-22T14:36:17;22.15;;;10.13;;
69226;SDS011;56334;52.398;7.552;2023-02-22T14:38:44;20.20;;;9.27;;
69226;SDS011;56334;52.398;7.552;2023-02-22T14:41:11;19.20;;;8.95;;
69226;SDS011;56334;52.398;7.552;2023-02-22T14:43:38;23.90;;;10.23;;
69226;SDS011;56334;52.398;7.552;2023-02-22T14:46:05;21.05;;;9.05;;
69226;SDS011;56334;52.398;7.552;2023-02-22T14:48:34;22.33;;;9.65;;
69226;SDS011;56334;52.398;7.552;2023-02-22T14:51:18;20.50;;;9.48;;
69226;SDS011;56334;52.398;7.552;2023-02-22T14:59:36;20.35;;;8.95;;
69226;SDS011;56334;52.398;7.552;2023-02-22T15:02:10;21.40;;;8.98;;
69226;SDS011;56334;52.398;7.552;2023-02-22T15:04:37;23.38;;;9.82;;
69226;SDS011;56334;52.398;7.552;2023-02-22T15:07:08;30.98;;;12.18;;
69226;SDS011;56334;52.398;7.552;2023-02-22T15:09:44;29.45;;;12.52;;
69226;SDS011;56334;52.398;7.552;2023-02-22T15:12:15;20.75;;;9.05;;
69226;SDS011;56334;52.398;7.552;2023-02-22T15:17:46;21.52;;;9.15;;
69226;SDS011;56334;52.398;7.552;2023-02-22T15:20:14;21.45;;;9.00;;
69226;SDS011;56334;52.398;7.552;2023-02-22T15:22:41;23.13;;;9.27;;
69226;SDS011;56334;52.398;7.552;2023-02-22T15:25:08;21.48;;;8.80;;
69226;SDS011;56334;52.398;7.552;2023-02-22T15:27:36;20.35;;;9.02;;
69226;SDS011;56334;52.398;7.552;2023-02-22T15:30:07;25.08;;;9.85;;
69226;SDS011;56334;52.398;7.552;2023-02-22T15:32:52;23.70;;;10.35;;
69226;SDS011;56334;52.398;7.552;2023-02-22T15:37:44;21.35;;;8.75;;
69226;SDS011;56334;52.398;7.552;2023-02-22T15:40:16;22.08;;;9.82;;
69226;SDS011;56334;52.398;7.552;2023-02-22T15:42:43;21.75;;;9.55;;
69226;SDS011;56334;52.398;7.552;2023-02-22T15:45:13;23.88;;;9.95;;
69226;SDS011;56334;52.398;7.552;2023-02-22T15:47:39;22.55;;;9.98;;
69226;SDS011;56334;52.398;7.552;2023-02-22T15:50:15;22.73;;;9.07;;
69226;SDS011;56334;52.398;7.552;2023-02-22T15:53:27;21.92;;;9.85;;
69226;SDS011;56334;52.398;7.552;2023-02-22T15:55:28;23.58;;;9.55;;
69226;SDS011;56334;52.398;7.552;2023-02-22T15:57:57;24.38;;;11.32;;
69226;SDS011;56334;52.398;7.552;2023-02-22T16:00:26;22.85;;;10.02;;
69226;SDS011;56334;52.398;7.552;2023-02-22T16:03:00;21.92;;;9.88;;
69226;SDS011;56334;52.398;7.552;2023-02-22T16:07:54;29.13;;;12.07;;
69226;SDS011;56334;52.398;7.552;2023-02-22T16:10:25;27.00;;;12.60;;
69226;SDS011;56334;52.398;7.552;2023-02-22T16:13:34;26.42;;;10.52;;
69226;SDS011;56334;52.398;7.552;2023-02-22T16:15:42;20.90;;;8.52;;
69226;SDS011;56334;52.398;7.552;2023-02-22T16:18:22;22.50;;;9.23;;
69226;SDS011;56334;52.398;7.552;2023-02-22T16:20:56;22.45;;;10.13;;
69226;SDS011;56334;52.398;7.552;2023-02-22T16:23:24;20.75;;;8.25;;
69226;SDS011;56334;52.398;7.552;2023-02-22T16:26:14;23.35;;;9.52;;
69226;SDS011;56334;52.398;7.552;2023-02-22T16:29:01;17.63;;;8.20;;
69226;SDS011;56334;52.398;7.552;2023-02-22T16:31:32;21.30;;;10.07;;
69226;SDS011;56334;52.398;7.552;2023-02-22T16:34:00;22.00;;;9.52;;
69226;SDS011;56334;52.398;7.552;2023-02-22T16:36:37;19.35;;;8.93;;
69226;SDS011;56334;52.398;7.552;2023-02-22T16:39:05;21.95;;;9.10;;
69226;SDS011;56334;52.398;7.552;2023-02-22T16:44:03;21.27;;;9.13;;
69226;SDS011;56334;52.398;7.552;2023-02-22T16:46:31;16.90;;;7.00;;
69226;SDS011;56334;52.398;7.552;2023-02-22T16:52:01;19.80;;;8.40;;
69226;SDS011;56334;52.398;7.552;2023-02-22T16:56:47;18.33;;;7.68;;
69226;SDS011;56334;52.398;7.552;2023-02-22T16:59:13;24.00;;;11.00;;
69226;SDS011;56334;52.398;7.552;2023-02-22T17:07:00;21.85;;;9.80;;
69226;SDS011;56334;52.398;7.552;2023-02-22T17:09:26;24.55;;;10.13;;
69226;SDS011;56334;52.398;7.552;2023-02-22T17:11:54;18.83;;;8.15;;
69226;SDS011;56334;52.398;7.552;2023-02-22T17:14:22;27.83;;;11.75;;
69226;SDS011;56334;52.398;7.552;2023-02-22T17:16:51;24.02;;;10.02;;
69226;SDS011;56334;52.398;7.552;2023-02-22T17:21:44;24.10;;;11.07;;
69226;SDS011;56334;52.398;7.552;2023-02-22T17:24:10;23.50;;;9.57;;
69226;SDS011;56334;52.398;7.552;2023-02-22T17:26:37;24.75;;;10.25;;
69226;SDS011;56334;52.398;7.552;2023-02-22T17:29:04;21.77;;;10.10;;
69226;SDS011;56334;52.398;7.552;2023-02-22T17:31:30;23.25;;;10.85;;
69226;SDS011;56334;52.398;7.552;2023-02-22T17:34:00;20.23;;;8.98;;
69226;SDS011;56334;52.398;7.552;2023-02-22T17:36:27;25.75;;;10.13;;
69226;SDS011;56334;52.398;7.552;2023-02-22T17:38:53;21.10;;;9.45;;
69226;SDS011;56334;52.398;7.552;2023-02-22T17:41:19;21.02;;;9.05;;
69226;SDS011;56334;52.398;7.552;2023-02-22T17:43:45;21.25;;;9.38;;
69226;SDS011;56334;52.398;7.552;2023-02-22T17:46:14;22.52;;;9.05;;
69226;SDS011;56334;52.398;7.552;2023-02-22T17:48:40;19.90;;;8.70;;
69226;SDS011;56334;52.398;7.552;2023-02-22T17:51:07;24.25;;;10.18;;
69226;SDS011;56334;52.398;7.552;2023-02-22T17:53:41;23.73;;;10.07;;
69226;SDS011;56334;52.398;7.552;2023-02-22T17:56:09;24.20;;;10.45;;
69226;SDS011;56334;52.398;7.552;2023-02-22T17:58:39;25.88;;;10.15;;
69226;SDS011;56334;52.398;7.552;2023-02-22T18:01:05;20.90;;;9.43;;
69226;SDS011;56334;52.398;7.552;2023-02-22T18:03:32;18.85;;;7.80;;
69226;SDS011;56334;52.398;7.552;2023-02-22T18:05:59;20.98;;;8.20;;
69226;SDS011;56334;52.398;7.552;2023-02-22T18:08:26;25.17;;;10.93;;
69226;SDS011;56334;52.398;7.552;2023-02-22T18:10:52;20.02;;;8.35;;
69226;SDS011;56334;52.398;7.552;2023-02-22T18:13:22;21.77;;;9.40;;
69226;SDS011;56334;52.398;7.552;2023-02-22T18:18:25;23.73;;;10.73;;
69226;SDS011;56334;52.398;7.552;2023-02-22T18:20:51;42.70;;;19.90;;
69226;SDS011;56334;52.398;7.552;2023-02-22T18:23:23;28.00;;;12.73;;
69226;SDS011;56334;52.398;7.552;2023-02-22T18:25:53;32.10;;;13.95;;
69226;SDS011;56334;52.398;7.552;2023-02-22T18:28:19;35.45;;;15.95;;
69226;SDS011;56334;52.398;7.552;2023-02-22T18:30:46;42.15;;;17.42;;
69226;SDS011;56334;52.398;7.552;2023-02-22T18:33:13;27.58;;;12.73;;